createdAt,value
2019-05-03T00:01:27.007Z,13.60
2019-05-03T00:03:53.366Z,13.50
2019-05-03T00:06:19.765Z,13.50
2019-05-03T00:08:46.238Z,13.50
2019-05-03T00:11:12.710Z,13.40
2019-05-03T00:13:39.002Z,13.30
2019-05-03T00:16:07.342Z,13.30
2019-05-03T00:18:33.934Z,13.20
2019-05-03T00:21:02.045Z,13.20
2019-05-03T00:23:28.407Z,13.20
2019-05-03T00:25:55.063Z,13.20
2019-05-03T00:28:21.748Z,13.20
2019-05-03T00:30:48.123Z,13.10
2019-05-03T00:33:14.406Z,13.10
2019-05-03T00:35:42.816Z,13.10
2019-05-03T00:38:12.296Z,13.10
2019-05-03T00:40:41.603Z,13.10
2019-05-03T00:43:08.355Z,13.10
2019-05-03T00:45:34.737Z,13.10
2019-05-03T00:48:01.870Z,13.10
2019-05-03T00:50:28.675Z,13.10
2019-05-03T00:52:55.066Z,13.10
2019-05-03T00:55:21.974Z,13.10
2019-05-03T00:57:48.886Z,13.00
2019-05-03T01:00:16.564Z,13.00
2019-05-03T01:02:43.086Z,13.00
2019-05-03T01:05:11.811Z,13.00
2019-05-03T01:07:38.135Z,13.00
2019-05-03T01:10:06.707Z,13.00
2019-05-03T01:12:32.987Z,13.00
2019-05-03T01:15:02.099Z,12.90
2019-05-03T01:17:31.690Z,13.00
2019-05-03T01:19:58.111Z,13.00
2019-05-03T01:22:24.384Z,12.90
2019-05-03T01:24:51.816Z,12.90
2019-05-03T01:27:18.239Z,12.90
2019-05-03T01:29:46.339Z,12.90
2019-05-03T01:32:12.698Z,12.90
2019-05-03T01:34:39.331Z,12.80
2019-05-03T01:37:05.626Z,12.80
2019-05-03T01:39:32.009Z,12.80
2019-05-03T01:41:58.407Z,12.70
2019-05-03T01:44:24.663Z,12.80
2019-05-03T01:46:52.895Z,12.80
2019-05-03T01:49:22.810Z,12.70
2019-05-03T01:51:52.681Z,12.70
2019-05-03T01:54:19.043Z,12.70
2019-05-03T01:56:56.076Z,12.70
2019-05-03T01:59:14.663Z,12.70
2019-05-03T02:01:48.808Z,12.70
2019-05-03T02:04:29.715Z,12.60
2019-05-03T02:06:56.078Z,12.60
2019-05-03T02:09:22.361Z,12.70
2019-05-03T02:11:48.910Z,12.60
2019-05-03T02:14:16.310Z,12.60
2019-05-03T02:16:42.670Z,12.70
2019-05-03T02:19:08.951Z,12.70
2019-05-03T02:21:35.245Z,12.70
2019-05-03T02:24:02.572Z,12.70
2019-05-03T02:26:29.237Z,12.70
2019-05-03T02:28:55.862Z,12.70
2019-05-03T02:31:23.129Z,12.70
2019-05-03T02:33:49.782Z,12.70
2019-05-03T02:36:16.344Z,12.70
2019-05-03T02:38:43.186Z,12.70
2019-05-03T02:41:09.953Z,12.70
2019-05-03T02:43:40.959Z,12.70
2019-05-03T02:46:25.350Z,12.70
2019-05-03T02:48:57.065Z,12.70
2019-05-03T02:51:25.811Z,12.70
2019-05-03T02:53:51.723Z,12.60
2019-05-03T02:56:22.425Z,12.60
2019-05-03T02:58:46.391Z,12.60
2019-05-03T03:01:15.972Z,12.60
2019-05-03T03:03:41.483Z,12.60
2019-05-03T03:06:08.331Z,12.60
2019-05-03T03:08:37.019Z,12.60
2019-05-03T03:11:06.648Z,12.60
2019-05-03T03:13:36.909Z,12.60
2019-05-03T03:16:07.098Z,12.60
2019-05-03T03:18:36.619Z,12.60
2019-05-03T03:21:06.022Z,12.60
2019-05-03T03:23:56.258Z,12.60
2019-05-03T03:26:37.608Z,12.60
2019-05-03T03:29:01.253Z,12.60
2019-05-03T03:31:31.762Z,12.60
2019-05-03T03:34:07.779Z,12.50
2019-05-03T03:36:53.294Z,12.50
2019-05-03T03:39:06.138Z,12.50
2019-05-03T03:41:35.232Z,12.50
2019-05-03T03:44:02.691Z,12.50
2019-05-03T03:46:32.227Z,12.50
2019-05-03T03:49:00.315Z,12.50
2019-05-03T03:51:28.789Z,12.50
2019-05-03T03:53:58.431Z,12.50
2019-05-03T03:56:28.553Z,12.50
2019-05-03T03:58:55.680Z,12.50
2019-05-03T04:01:22.649Z,12.40
2019-05-03T04:03:49.124Z,12.40
2019-05-03T04:06:15.577Z,12.40
2019-05-03T04:08:42.113Z,12.40
2019-05-03T04:11:08.398Z,12.40
2019-05-03T04:13:36.974Z,12.40
2019-05-03T04:16:05.643Z,12.40
2019-05-03T04:18:36.158Z,12.40
2019-05-03T04:21:05.512Z,12.40
2019-05-03T04:23:35.687Z,12.40
2019-05-03T04:26:02.139Z,12.40
2019-05-03T04:28:29.718Z,12.40
2019-05-03T04:30:56.615Z,12.30
2019-05-03T04:33:22.888Z,12.30
2019-05-03T04:35:49.620Z,12.30
2019-05-03T04:38:16.452Z,12.30
2019-05-03T04:40:45.361Z,12.40
2019-05-03T04:43:11.515Z,12.30
2019-05-03T04:45:37.784Z,12.30
2019-05-03T04:48:05.961Z,12.30
2019-05-03T04:50:36.357Z,12.30
2019-05-03T04:53:05.538Z,12.30
2019-05-03T04:55:31.527Z,12.30
2019-05-03T04:57:59.104Z,12.30
2019-05-03T05:00:26.139Z,12.40
2019-05-03T05:02:54.923Z,12.40
2019-05-03T05:05:20.843Z,12.40
2019-05-03T05:07:47.239Z,12.40
2019-05-03T05:10:15.276Z,12.40
2019-05-03T05:12:45.540Z,12.40
2019-05-03T05:15:11.423Z,12.40
2019-05-03T05:17:39.701Z,12.40
2019-05-03T05:20:25.578Z,12.40
2019-05-03T05:22:51.843Z,12.40
2019-05-03T05:25:20.041Z,12.40
2019-05-03T05:27:57.390Z,12.40
2019-05-03T05:30:25.199Z,12.30
2019-05-03T05:32:52.918Z,12.30
2019-05-03T05:35:19.410Z,12.30
2019-05-03T05:37:45.684Z,12.30
2019-05-03T05:40:12.586Z,12.30
2019-05-03T05:42:39.127Z,12.40
2019-05-03T05:45:05.814Z,12.40
2019-05-03T05:47:35.190Z,12.40
2019-05-03T05:50:05.042Z,12.40
2019-05-03T05:52:31.458Z,12.40
2019-05-03T05:55:16.534Z,12.40
2019-05-03T05:57:47.705Z,12.40
2019-05-03T06:00:28.040Z,12.40
2019-05-03T06:02:55.169Z,12.50
2019-05-03T06:05:21.624Z,12.50
2019-05-03T06:07:51.090Z,12.60
2019-05-03T06:10:28.181Z,12.60
2019-05-03T06:13:11.251Z,12.70
2019-05-03T06:15:42.490Z,12.70
2019-05-03T06:18:11.774Z,12.80
2019-05-03T06:20:42.735Z,12.80
2019-05-03T06:23:11.255Z,12.90
2019-05-03T06:25:39.442Z,12.90
2019-05-03T06:28:17.777Z,12.90
2019-05-03T06:30:40.799Z,12.90
2019-05-03T06:33:07.066Z,12.90
2019-05-03T06:35:34.600Z,12.90
2019-05-03T06:38:00.939Z,12.90
2019-05-03T06:40:27.262Z,12.90
2019-05-03T06:43:15.592Z,13.00
2019-05-03T06:45:46.685Z,13.00
2019-05-03T06:48:10.511Z,13.00
2019-05-03T06:50:36.990Z,13.10
2019-05-03T06:53:05.830Z,13.10
2019-05-03T06:55:31.705Z,13.20
2019-05-03T06:57:57.994Z,13.30
2019-05-03T07:00:38.541Z,13.30
2019-05-03T07:03:06.867Z,13.40
2019-05-03T07:05:35.526Z,13.50
2019-05-03T07:08:05.173Z,13.60
2019-05-03T07:10:39.589Z,13.70
2019-05-03T07:13:08.763Z,13.70
2019-05-03T07:15:35.194Z,13.70
2019-05-03T07:18:02.992Z,13.60
2019-05-03T07:20:31.718Z,13.60
2019-05-03T07:22:58.358Z,13.50
2019-05-03T07:25:25.784Z,13.60
2019-05-03T07:27:52.299Z,13.60
2019-05-03T07:30:19.004Z,13.60
2019-05-03T07:32:47.284Z,13.70
2019-05-03T07:35:14.820Z,13.70
2019-05-03T07:37:41.348Z,13.80
2019-05-03T07:40:08.520Z,13.80
2019-05-03T07:42:35.170Z,13.80
2019-05-03T07:45:04.955Z,13.90
2019-05-03T07:47:31.359Z,13.90
2019-05-03T07:49:57.940Z,13.90
2019-05-03T07:52:25.859Z,14.00
2019-05-03T07:54:52.295Z,14.00
2019-05-03T07:57:25.385Z,14.10
2019-05-03T07:59:51.787Z,14.10
2019-05-03T08:02:18.966Z,14.10
2019-05-03T08:04:45.663Z,14.10
2019-05-03T08:07:20.671Z,14.10
2019-05-03T08:09:40.250Z,14.10
2019-05-03T08:12:06.527Z,14.10
2019-05-03T08:14:32.895Z,14.10
2019-05-03T08:16:59.554Z,14.10
2019-05-03T08:19:27.028Z,14.10
2019-05-03T08:21:56.449Z,14.20
2019-05-03T08:24:21.835Z,14.20
2019-05-03T08:26:48.090Z,14.30
2019-05-03T08:29:19.017Z,14.40
2019-05-03T08:31:50.530Z,14.60
2019-05-03T08:34:35.311Z,14.70
2019-05-03T08:37:06.555Z,14.90
2019-05-03T08:39:35.388Z,15.10
2019-05-03T08:42:04.832Z,15.20
2019-05-03T08:44:32.238Z,15.20
2019-05-03T08:46:59.263Z,15.20
2019-05-03T08:49:26.162Z,15.20
2019-05-03T08:51:54.817Z,15.40
2019-05-03T08:54:21.023Z,15.70
2019-05-03T08:56:47.883Z,16.20
2019-05-03T08:59:26.831Z,16.90
2019-05-03T09:01:42.479Z,17.60
2019-05-03T09:04:09.042Z,18.30
2019-05-03T09:06:35.555Z,18.80
2019-05-03T09:09:04.762Z,19.10
2019-05-03T09:11:34.344Z,19.30
2019-05-03T09:14:10.715Z,19.60
2019-05-03T09:16:37.020Z,19.90
2019-05-03T09:19:05.403Z,19.90
2019-05-03T09:21:32.362Z,19.90
2019-05-03T09:23:59.011Z,19.80
2019-05-03T09:26:29.109Z,19.70
2019-05-03T09:28:55.648Z,19.60
2019-05-03T09:31:24.523Z,19.40
2019-05-03T09:33:50.955Z,19.20
2019-05-03T09:36:17.342Z,18.90
2019-05-03T09:38:45.561Z,18.60
2019-05-03T09:41:12.241Z,18.40
2019-05-03T09:43:38.865Z,18.60
2019-05-03T09:46:05.244Z,19.20
2019-05-03T09:48:32.160Z,20.00
2019-05-03T09:50:58.787Z,20.80
2019-05-03T09:53:27.194Z,21.30
2019-05-03T09:55:55.509Z,21.70
2019-05-03T09:58:21.896Z,22.00
2019-05-03T10:00:49.236Z,22.20
2019-05-03T10:03:15.831Z,22.40
2019-05-03T10:05:45.683Z,22.40
2019-05-03T10:08:11.776Z,22.20
2019-05-03T10:10:56.568Z,21.90
2019-05-03T10:13:26.758Z,21.70
2019-05-03T10:15:51.953Z,21.50
2019-05-03T10:18:18.643Z,21.40
2019-05-03T10:20:45.016Z,21.20
2019-05-03T10:23:19.075Z,21.00
2019-05-03T10:25:45.580Z,20.70
2019-05-03T10:28:12.021Z,20.40
2019-05-03T10:30:38.422Z,20.10
2019-05-03T10:33:15.757Z,19.80
2019-05-03T10:35:42.334Z,19.50
2019-05-03T10:38:08.717Z,19.20
2019-05-03T10:40:35.745Z,19.10
2019-05-03T10:43:04.817Z,19.10
2019-05-03T10:45:31.831Z,19.20
2019-05-03T10:47:58.338Z,19.30
2019-05-03T10:50:25.321Z,19.20
2019-05-03T10:52:56.674Z,19.20
2019-05-03T10:55:24.930Z,19.10
2019-05-03T10:58:10.231Z,19.00
2019-05-03T11:00:45.006Z,18.90
2019-05-03T11:03:07.464Z,19.30
2019-05-03T11:05:34.811Z,19.80
2019-05-03T11:08:01.690Z,20.40
2019-05-03T11:10:28.086Z,21.10
2019-05-03T11:12:54.861Z,21.50
2019-05-03T11:15:21.661Z,21.80
2019-05-03T11:17:48.032Z,21.90
2019-05-03T11:20:28.193Z,21.80
2019-05-03T11:22:46.730Z,21.70
2019-05-03T11:25:13.128Z,21.50
2019-05-03T11:27:41.552Z,21.40
2019-05-03T11:30:09.672Z,21.60
2019-05-03T11:32:41.011Z,21.80
2019-05-03T11:35:26.230Z,22.00
2019-05-03T11:38:01.330Z,22.10
2019-05-03T11:40:27.619Z,22.00
2019-05-03T11:42:55.991Z,21.80
2019-05-03T11:45:24.503Z,21.50
2019-05-03T11:47:50.801Z,21.30
2019-05-03T11:50:18.438Z,21.00
2019-05-03T11:52:47.115Z,20.70
2019-05-03T11:55:15.738Z,20.60
2019-05-03T11:57:41.872Z,20.40
2019-05-03T12:00:10.889Z,20.50
2019-05-03T12:02:39.319Z,20.70
2019-05-03T12:05:17.347Z,20.90
2019-05-03T12:07:45.490Z,21.00
2019-05-03T12:10:26.569Z,21.10
2019-05-03T12:12:45.348Z,21.10
2019-05-03T12:15:15.129Z,21.00
2019-05-03T12:17:51.791Z,21.20
2019-05-03T12:20:14.695Z,21.40
2019-05-03T12:22:41.638Z,21.70
2019-05-03T12:25:10.454Z,21.90
2019-05-03T12:27:37.216Z,22.10
2019-05-03T12:30:05.291Z,22.10
2019-05-03T12:32:31.781Z,22.10
2019-05-03T12:34:58.368Z,22.10
2019-05-03T12:37:24.685Z,22.00
2019-05-03T12:39:51.214Z,21.70
2019-05-03T12:42:18.918Z,21.50
2019-05-03T12:44:46.591Z,21.30
2019-05-03T12:47:14.595Z,21.00
2019-05-03T12:49:41.075Z,20.70
2019-05-03T12:52:10.146Z,20.50
2019-05-03T12:54:35.957Z,20.20
2019-05-03T12:57:05.021Z,20.10
2019-05-03T12:59:36.451Z,20.00
2019-05-03T13:02:08.134Z,19.80
2019-05-03T13:04:36.711Z,19.70
2019-05-03T13:07:08.162Z,19.80
2019-05-03T13:09:35.776Z,19.90
2019-05-03T13:12:02.769Z,20.20
2019-05-03T13:14:29.503Z,20.50
2019-05-03T13:16:57.169Z,20.80
2019-05-03T13:19:25.623Z,21.30
2019-05-03T13:21:51.723Z,21.70
2019-05-03T13:24:23.226Z,22.10
2019-05-03T13:26:46.294Z,22.30
2019-05-03T13:29:15.152Z,22.40
2019-05-03T13:31:54.946Z,22.40
2019-05-03T13:34:09.627Z,22.20
2019-05-03T13:36:35.961Z,22.00
2019-05-03T13:39:13.883Z,21.80
2019-05-03T13:41:34.929Z,21.70
2019-05-03T13:44:01.490Z,21.60
2019-05-03T13:46:27.782Z,21.60
2019-05-03T13:48:55.432Z,21.70
2019-05-03T13:51:21.916Z,21.80
2019-05-03T13:53:48.195Z,21.80
2019-05-03T13:56:15.306Z,21.80
2019-05-03T13:58:41.875Z,21.60
2019-05-03T14:01:08.208Z,21.50
2019-05-03T14:03:35.157Z,21.30
2019-05-03T14:06:07.602Z,21.10
2019-05-03T14:08:30.840Z,20.90
2019-05-03T14:10:57.156Z,20.80
2019-05-03T14:13:23.610Z,20.60
2019-05-03T14:15:49.893Z,20.60
2019-05-03T14:18:16.291Z,20.60
2019-05-03T14:20:55.053Z,20.60
2019-05-03T14:23:21.586Z,20.50
2019-05-03T14:25:47.958Z,20.40
2019-05-03T14:28:14.618Z,20.40
2019-05-03T14:30:41.858Z,20.40
2019-05-03T14:33:08.159Z,20.30
2019-05-03T14:35:34.846Z,20.40
2019-05-03T14:38:01.761Z,20.40
2019-05-03T14:40:28.100Z,20.50
2019-05-03T14:42:55.511Z,20.60
2019-05-03T14:45:22.058Z,20.50
2019-05-03T14:47:48.335Z,20.50
2019-05-03T14:50:15.173Z,20.40
2019-05-03T14:52:41.693Z,20.40
2019-05-03T14:55:34.537Z,20.30
2019-05-03T14:58:06.043Z,20.30
2019-05-03T15:00:37.059Z,20.10
2019-05-03T15:03:05.435Z,20.00
2019-05-03T15:05:31.739Z,19.90
2019-05-03T15:08:11.756Z,19.70
2019-05-03T15:10:38.606Z,19.60
2019-05-03T15:13:05.346Z,19.40
2019-05-03T15:15:32.190Z,19.30
2019-05-03T15:17:58.831Z,19.20
2019-05-03T15:20:25.662Z,19.10
2019-05-03T15:22:52.143Z,19.00
2019-05-03T15:25:18.854Z,18.90
2019-05-03T15:27:48.418Z,18.80
2019-05-03T15:30:15.588Z,18.80
2019-05-03T15:32:54.749Z,18.80
2019-05-03T15:35:10.726Z,18.70
2019-05-03T15:37:37.014Z,18.70
2019-05-03T15:40:06.246Z,18.70
2019-05-03T15:42:34.919Z,18.60
2019-05-03T15:45:09.142Z,18.60
2019-05-03T15:47:55.001Z,18.50
2019-05-03T15:50:21.416Z,18.40
2019-05-03T15:52:47.851Z,18.30
2019-05-03T15:55:15.195Z,18.30
2019-05-03T15:57:41.903Z,18.20
2019-05-03T16:00:10.815Z,18.10
2019-05-03T16:02:38.790Z,18.10
2019-05-03T16:05:05.264Z,18.00
2019-05-03T16:07:32.043Z,18.00
2019-05-03T16:09:58.690Z,17.90
2019-05-03T16:12:25.335Z,17.80
2019-05-03T16:14:51.959Z,17.70
2019-05-03T16:17:18.704Z,17.60
2019-05-03T16:19:47.611Z,17.50
2019-05-03T16:22:14.376Z,17.40
2019-05-03T16:24:41.079Z,17.30
2019-05-03T16:27:12.063Z,17.20
2019-05-03T16:29:38.367Z,17.20
2019-05-03T16:32:05.338Z,17.10
2019-05-03T16:34:31.871Z,17.10
2019-05-03T16:36:58.501Z,17.00
2019-05-03T16:39:26.918Z,17.00
2019-05-03T16:41:53.158Z,16.90
2019-05-03T16:44:19.484Z,16.80
2019-05-03T16:46:45.957Z,16.80
2019-05-03T16:49:15.614Z,16.70
2019-05-03T16:51:44.210Z,16.60
2019-05-03T16:54:10.770Z,16.60
2019-05-03T16:56:37.419Z,16.50
2019-05-03T16:59:05.788Z,16.40
2019-05-03T17:01:32.530Z,16.30
2019-05-03T17:04:01.110Z,16.20
2019-05-03T17:06:29.343Z,16.10
2019-05-03T17:09:00.370Z,16.10
2019-05-03T17:11:27.130Z,16.00
2019-05-03T17:13:55.042Z,15.90
2019-05-03T17:16:24.884Z,15.90
2019-05-03T17:18:51.484Z,15.80
2019-05-03T17:21:18.022Z,15.70
2019-05-03T17:23:44.735Z,15.60
2019-05-03T17:26:11.299Z,15.50
2019-05-03T17:28:37.699Z,15.40
2019-05-03T17:31:04.516Z,15.40
2019-05-03T17:33:31.243Z,15.30
2019-05-03T17:35:58.163Z,15.20
2019-05-03T17:38:24.832Z,15.10
2019-05-03T17:40:55.839Z,15.00
2019-05-03T17:43:24.319Z,15.00
2019-05-03T17:46:01.749Z,14.90
2019-05-03T17:48:28.147Z,14.80
2019-05-03T17:50:55.185Z,14.80
2019-05-03T17:53:38.809Z,14.70
2019-05-03T17:56:07.614Z,14.70
2019-05-03T17:58:52.790Z,14.70
2019-05-03T18:01:27.252Z,14.60
2019-05-03T18:04:06.587Z,14.50
2019-05-03T18:06:32.169Z,14.40
2019-05-03T18:09:09.862Z,14.40
2019-05-03T18:11:41.226Z,14.40
2019-05-03T18:14:07.849Z,14.30
2019-05-03T18:16:35.013Z,14.30
2019-05-03T18:19:02.963Z,14.30
2019-05-03T18:21:29.607Z,14.20
2019-05-03T18:23:55.905Z,14.20
2019-05-03T18:26:22.585Z,14.20
2019-05-03T18:28:49.535Z,14.10
2019-05-03T18:31:16.128Z,14.10
2019-05-03T18:33:44.053Z,14.10
2019-05-03T18:36:11.825Z,14.10
2019-05-03T18:38:38.758Z,14.00
2019-05-03T18:41:06.268Z,14.00
2019-05-03T18:43:34.657Z,14.00
2019-05-03T18:46:06.816Z,14.00
2019-05-03T18:48:33.191Z,13.90
2019-05-03T18:50:59.597Z,13.90
2019-05-03T18:53:26.261Z,13.80
2019-05-03T18:55:55.106Z,13.80
2019-05-03T18:58:21.553Z,13.80
2019-05-03T19:00:49.203Z,13.80
2019-05-03T19:03:15.632Z,13.70
2019-05-03T19:05:45.351Z,13.70
2019-05-03T19:08:25.726Z,13.70
2019-05-03T19:10:55.155Z,13.60
2019-05-03T19:13:26.526Z,13.60
2019-05-03T19:15:55.057Z,13.60
2019-05-03T19:18:29.744Z,13.50
2019-05-03T19:20:56.141Z,13.50
2019-05-03T19:23:24.753Z,13.50
2019-05-03T19:25:51.253Z,13.50
2019-05-03T19:28:17.796Z,13.40
2019-05-03T19:30:47.090Z,13.40
2019-05-03T19:33:13.407Z,13.40
2019-05-03T19:35:40.015Z,13.40
2019-05-03T19:38:06.616Z,13.40
2019-05-03T19:40:34.971Z,13.30
2019-05-03T19:43:03.330Z,13.30
2019-05-03T19:45:29.884Z,13.30
2019-05-03T19:47:56.447Z,13.20
2019-05-03T19:50:26.966Z,13.20
2019-05-03T19:53:11.352Z,13.10
2019-05-03T19:55:37.768Z,13.10
2019-05-03T19:58:05.399Z,13.10
2019-05-03T20:00:40.008Z,13.10
2019-05-03T20:03:09.387Z,13.00
2019-05-03T20:05:44.901Z,13.00
2019-05-03T20:08:22.090Z,13.00
2019-05-03T20:10:48.806Z,12.90
2019-05-03T20:13:15.583Z,12.90
2019-05-03T20:15:44.916Z,12.90
2019-05-03T20:18:11.058Z,12.80
2019-05-03T20:20:37.560Z,12.80
2019-05-03T20:23:05.268Z,12.70
2019-05-03T20:25:32.520Z,12.70
2019-05-03T20:27:58.895Z,12.60
2019-05-03T20:30:25.525Z,12.60
2019-05-03T20:32:51.963Z,12.60
2019-05-03T20:35:19.551Z,12.60
2019-05-03T20:37:46.020Z,12.50
2019-05-03T20:40:15.280Z,12.50
2019-05-03T20:42:46.727Z,12.50
2019-05-03T20:45:15.564Z,12.50
2019-05-03T20:47:45.383Z,12.50
2019-05-03T20:50:15.308Z,12.50
2019-05-03T20:52:42.070Z,12.40
2019-05-03T20:55:09.110Z,12.40
2019-05-03T20:57:35.922Z,12.40
2019-05-03T21:00:05.024Z,12.40
2019-05-03T21:02:34.478Z,12.30
2019-05-03T21:05:06.954Z,12.30
2019-05-03T21:07:35.155Z,12.30
2019-05-03T21:10:06.121Z,12.30
2019-05-03T21:12:34.556Z,12.20
2019-05-03T21:15:02.181Z,12.20
2019-05-03T21:17:36.883Z,12.20
2019-05-03T21:20:10.719Z,12.10
2019-05-03T21:22:38.211Z,12.10
2019-05-03T21:25:10.627Z,12.00
2019-05-03T21:27:36.911Z,12.00
2019-05-03T21:30:06.811Z,12.00
2019-05-03T21:32:35.163Z,12.00
2019-05-03T21:35:05.383Z,11.90
2019-05-03T21:37:31.807Z,11.90
2019-05-03T21:39:58.274Z,11.90
2019-05-03T21:42:24.571Z,11.90
2019-05-03T21:44:51.470Z,11.90
2019-05-03T21:47:36.486Z,11.90
2019-05-03T21:50:05.887Z,11.90
2019-05-03T21:52:32.162Z,11.90
2019-05-03T21:54:58.470Z,11.90
2019-05-03T21:57:25.351Z,11.80
2019-05-03T21:59:52.134Z,11.80
2019-05-03T22:02:18.767Z,11.80
2019-05-03T22:04:45.059Z,11.80
2019-05-03T22:07:11.430Z,11.80
2019-05-03T22:09:37.730Z,11.80
2019-05-03T22:12:05.260Z,11.80
2019-05-03T22:14:35.074Z,11.80
2019-05-03T22:17:22.828Z,11.80
2019-05-03T22:19:50.646Z,11.80
2019-05-03T22:22:25.608Z,11.80
2019-05-03T22:24:55.412Z,11.70
2019-05-03T22:27:24.630Z,11.80
2019-05-03T22:29:51.215Z,11.70
2019-05-03T22:32:18.872Z,11.70
2019-05-03T22:34:45.174Z,11.70
2019-05-03T22:37:11.550Z,11.70
2019-05-03T22:39:38.378Z,11.70
2019-05-03T22:42:04.847Z,11.70
2019-05-03T22:44:31.162Z,11.70
2019-05-03T22:46:57.624Z,11.80
2019-05-03T22:49:25.946Z,11.80
2019-05-03T22:51:54.393Z,11.70
2019-05-03T22:54:21.079Z,11.70
2019-05-03T22:56:47.718Z,11.70
2019-05-03T22:59:14.706Z,11.70
2019-05-03T23:01:41.393Z,11.70
2019-05-03T23:04:07.761Z,11.70
2019-05-03T23:06:34.470Z,11.70
2019-05-03T23:09:01.519Z,11.70
2019-05-03T23:11:29.810Z,11.60
2019-05-03T23:14:02.078Z,11.60
2019-05-03T23:16:29.613Z,11.60
2019-05-03T23:18:56.167Z,11.60
2019-05-03T23:21:24.456Z,11.60
2019-05-03T23:23:52.027Z,11.60
2019-05-03T23:26:18.424Z,11.60
2019-05-03T23:28:44.891Z,11.60
2019-05-03T23:31:11.692Z,11.60
2019-05-03T23:33:37.954Z,11.60
2019-05-03T23:36:04.719Z,11.60
2019-05-03T23:38:31.342Z,11.60
2019-05-03T23:40:57.706Z,11.60
2019-05-03T23:43:25.121Z,11.60
2019-05-03T23:45:51.682Z,11.60
2019-05-03T23:48:18.024Z,11.60
2019-05-03T23:50:44.633Z,11.60
2019-05-03T23:53:11.311Z,11.60
2019-05-03T23:55:39.839Z,11.60
2019-05-03T23:58:06.148Z,11.60
